sensor_id;sensor_type;location;lat;lon;timestamp;temperature;humidity
44729;DHT22;30457;53.590;9.922;2023-02-28T00:00:53;8.40;47.40
44729;DHT22;30457;53.590;9.922;2023-02-28T00:05:21;8.40;47.90
44729;DHT22;30457;53.590;9.922;2023-02-28T00:09:47;8.40;47.60
44729;DHT22;30457;53.590;9.922;2023-02-28T00:14:13;8.40;47.80
44729;DHT22;30457;53.590;9.922;2023-02-28T00:18:39;8.30;47.40
44729;DHT22;30457;53.590;9.922;2023-02-28T00:23:05;8.20;47.50
44729;DHT22;30457;53.590;9.922;2023-02-28T00:27:30;8.20;47.90
44729;DHT22;30457;53.590;9.922;2023-02-28T00:31:56;8.10;47.90
44729;DHT22;30457;53.590;9.922;2023-02-28T00:36:21;8.10;47.80
44729;DHT22;30457;53.590;9.922;2023-02-28T00:40:47;8.00;47.70
44729;DHT22;30457;53.590;9.922;2023-02-28T00:45:13;8.00;47.90
44729;DHT22;30457;53.590;9.922;2023-02-28T00:49:38;7.90;48.00
44729;DHT22;30457;53.590;9.922;2023-02-28T00:54:04;7.90;48.00
44729;DHT22;30457;53.590;9.922;2023-02-28T00:58:29;7.90;47.90
44729;DHT22;30457;53.590;9.922;2023-02-28T01:02:56;7.80;47.80
44729;DHT22;30457;53.590;9.922;2023-02-28T01:07:22;7.80;47.90
44729;DHT22;30457;53.590;9.922;2023-02-28T01:11:47;7.80;47.70
44729;DHT22;30457;53.590;9.922;2023-02-28T01:16:13;7.70;48.00
44729;DHT22;30457;53.590;9.922;2023-02-28T01:20:39;7.70;48.40
44729;DHT22;30457;53.590;9.922;2023-02-28T01:25:04;7.70;48.20
44729;DHT22;30457;53.590;9.922;2023-02-28T01:29:30;7.60;48.70
44729;DHT22;30457;53.590;9.922;2023-02-28T01:33:56;7.60;49.10
44729;DHT22;30457;53.590;9.922;2023-02-28T01:38:22;7.60;48.90
44729;DHT22;30457;53.590;9.922;2023-02-28T01:42:47;7.60;48.90
44729;DHT22;30457;53.590;9.922;2023-02-28T01:47:13;7.60;48.50
44729;DHT22;30457;53.590;9.922;2023-02-28T01:51:48;7.50;48.20
44729;DHT22;30457;53.590;9.922;2023-02-28T01:56:20;7.50;48.30
44729;DHT22;30457;53.590;9.922;2023-02-28T02:00:48;7.40;48.60
44729;DHT22;30457;53.590;9.922;2023-02-28T02:05:23;7.40;48.60
44729;DHT22;30457;53.590;9.922;2023-02-28T02:09:49;7.40;48.90
44729;DHT22;30457;53.590;9.922;2023-02-28T02:18:59;7.40;49.40
44729;DHT22;30457;53.590;9.922;2023-02-28T02:38:08;7.30;49.60
44729;DHT22;30457;53.590;9.922;2023-02-28T02:42:47;7.30;49.50
44729;DHT22;30457;53.590;9.922;2023-02-28T02:47:17;7.30;49.50
44729;DHT22;30457;53.590;9.922;2023-02-28T02:51:44;7.20;49.40
44729;DHT22;30457;53.590;9.922;2023-02-28T02:56:12;7.20;49.40
44729;DHT22;30457;53.590;9.922;2023-02-28T03:00:48;7.20;49.70
44729;DHT22;30457;53.590;9.922;2023-02-28T03:05:46;7.10;49.90
44729;DHT22;30457;53.590;9.922;2023-02-28T03:10:38;7.10;49.60
44729;DHT22;30457;53.590;9.922;2023-02-28T03:15:15;7.00;49.40
44729;DHT22;30457;53.590;9.922;2023-02-28T03:25:01;6.90;49.80
44729;DHT22;30457;53.590;9.922;2023-02-28T03:29:37;6.80;49.70
44729;DHT22;30457;53.590;9.922;2023-02-28T03:34:12;6.70;49.70
44729;DHT22;30457;53.590;9.922;2023-02-28T03:43:13;6.60;49.80
44729;DHT22;30457;53.590;9.922;2023-02-28T03:47:56;6.60;49.80
44729;DHT22;30457;53.590;9.922;2023-02-28T03:52:27;6.50;49.80
44729;DHT22;30457;53.590;9.922;2023-02-28T04:01:47;6.40;49.90
44729;DHT22;30457;53.590;9.922;2023-02-28T04:06:19;6.30;49.90
44729;DHT22;30457;53.590;9.922;2023-02-28T04:10:50;6.20;50.00
44729;DHT22;30457;53.590;9.922;2023-02-28T04:15:16;6.10;50.00
44729;DHT22;30457;53.590;9.922;2023-02-28T04:19:43;6.10;50.20
44729;DHT22;30457;53.590;9.922;2023-02-28T04:24:11;6.00;50.90
44729;DHT22;30457;53.590;9.922;2023-02-28T04:28:39;5.90;50.30
44729;DHT22;30457;53.590;9.922;2023-02-28T04:33:05;5.90;50.40
44729;DHT22;30457;53.590;9.922;2023-02-28T04:37:30;5.80;50.50
44729;DHT22;30457;53.590;9.922;2023-02-28T04:42:00;5.80;50.60
44729;DHT22;30457;53.590;9.922;2023-02-28T04:46:25;5.70;50.60
44729;DHT22;30457;53.590;9.922;2023-02-28T04:50:51;5.70;50.70
44729;DHT22;30457;53.590;9.922;2023-02-28T04:55:17;5.60;50.70
44729;DHT22;30457;53.590;9.922;2023-02-28T04:59:42;5.60;50.80
44729;DHT22;30457;53.590;9.922;2023-02-28T05:04:08;5.50;51.50
44729;DHT22;30457;53.590;9.922;2023-02-28T05:08:34;5.50;51.00
44729;DHT22;30457;53.590;9.922;2023-02-28T05:13:00;5.40;51.00
44729;DHT22;30457;53.590;9.922;2023-02-28T05:17:26;5.40;51.10
44729;DHT22;30457;53.590;9.922;2023-02-28T05:21:53;5.30;51.10
44729;DHT22;30457;53.590;9.922;2023-02-28T05:26:19;5.30;51.20
44729;DHT22;30457;53.590;9.922;2023-02-28T05:30:46;5.20;51.20
44729;DHT22;30457;53.590;9.922;2023-02-28T05:35:12;5.20;51.40
44729;DHT22;30457;53.590;9.922;2023-02-28T05:39:38;5.10;51.40
44729;DHT22;30457;53.590;9.922;2023-02-28T05:44:04;5.10;51.50
44729;DHT22;30457;53.590;9.922;2023-02-28T05:48:29;5.00;51.60
44729;DHT22;30457;53.590;9.922;2023-02-28T05:52:55;5.00;51.70
44729;DHT22;30457;53.590;9.922;2023-02-28T05:57:20;4.90;51.80
44729;DHT22;30457;53.590;9.922;2023-02-28T06:01:47;4.90;51.80
44729;DHT22;30457;53.590;9.922;2023-02-28T06:06:15;4.90;51.80
44729;DHT22;30457;53.590;9.922;2023-02-28T06:10:41;4.80;51.90
44729;DHT22;30457;53.590;9.922;2023-02-28T06:15:16;4.70;51.90
44729;DHT22;30457;53.590;9.922;2023-02-28T06:19:42;4.70;52.00
44729;DHT22;30457;53.590;9.922;2023-02-28T06:24:08;4.70;52.10
44729;DHT22;30457;53.590;9.922;2023-02-28T06:28:33;4.70;52.20
44729;DHT22;30457;53.590;9.922;2023-02-28T06:32:59;4.60;52.30
44729;DHT22;30457;53.590;9.922;2023-02-28T06:37:25;4.60;52.40
44729;DHT22;30457;53.590;9.922;2023-02-28T06:41:51;4.60;52.60
44729;DHT22;30457;53.590;9.922;2023-02-28T06:46:18;4.50;52.70
44729;DHT22;30457;53.590;9.922;2023-02-28T06:50:44;4.50;52.80
44729;DHT22;30457;53.590;9.922;2023-02-28T06:55:09;4.50;52.90
44729;DHT22;30457;53.590;9.922;2023-02-28T06:59:35;4.50;53.00
44729;DHT22;30457;53.590;9.922;2023-02-28T07:04:02;4.50;53.20
44729;DHT22;30457;53.590;9.922;2023-02-28T07:08:30;4.60;53.40
44729;DHT22;30457;53.590;9.922;2023-02-28T07:12:57;4.60;53.40
44729;DHT22;30457;53.590;9.922;2023-02-28T07:17:22;4.60;53.60
44729;DHT22;30457;53.590;9.922;2023-02-28T07:21:48;4.60;53.80
44729;DHT22;30457;53.590;9.922;2023-02-28T07:26:15;4.70;54.10
44729;DHT22;30457;53.590;9.922;2023-02-28T07:30:42;4.80;54.40
44729;DHT22;30457;53.590;9.922;2023-02-28T07:35:08;4.80;54.50
44729;DHT22;30457;53.590;9.922;2023-02-28T07:39:34;5.00;54.60
44729;DHT22;30457;53.590;9.922;2023-02-28T07:43:59;5.10;54.80
44729;DHT22;30457;53.590;9.922;2023-02-28T07:48:25;5.20;54.80
44729;DHT22;30457;53.590;9.922;2023-02-28T07:52:51;5.40;54.80
44729;DHT22;30457;53.590;9.922;2023-02-28T07:57:17;5.50;54.80
44729;DHT22;30457;53.590;9.922;2023-02-28T08:01:43;5.70;54.80
44729;DHT22;30457;53.590;9.922;2023-02-28T08:06:17;5.90;54.50
44729;DHT22;30457;53.590;9.922;2023-02-28T08:10:43;6.10;54.30
44729;DHT22;30457;53.590;9.922;2023-02-28T08:15:09;6.30;53.80
44729;DHT22;30457;53.590;9.922;2023-02-28T08:19:34;6.50;53.80
44729;DHT22;30457;53.590;9.922;2023-02-28T08:24:00;6.60;53.40
44729;DHT22;30457;53.590;9.922;2023-02-28T08:28:26;6.90;53.30
44729;DHT22;30457;53.590;9.922;2023-02-28T08:32:51;7.10;53.00
44729;DHT22;30457;53.590;9.922;2023-02-28T08:37:17;7.20;52.60
44729;DHT22;30457;53.590;9.922;2023-02-28T08:41:42;7.50;52.20
44729;DHT22;30457;53.590;9.922;2023-02-28T08:46:12;7.60;51.60
44729;DHT22;30457;53.590;9.922;2023-02-28T08:50:38;7.80;51.10
44729;DHT22;30457;53.590;9.922;2023-02-28T08:55:04;8.10;50.90
44729;DHT22;30457;53.590;9.922;2023-02-28T08:59:30;8.20;50.30
44729;DHT22;30457;53.590;9.922;2023-02-28T09:03:56;8.40;50.80
44729;DHT22;30457;53.590;9.922;2023-02-28T09:08:23;8.60;50.10
44729;DHT22;30457;53.590;9.922;2023-02-28T09:12:49;8.80;49.80
44729;DHT22;30457;53.590;9.922;2023-02-28T09:17:14;9.10;49.50
44729;DHT22;30457;53.590;9.922;2023-02-28T09:21:40;9.30;49.20
44729;DHT22;30457;53.590;9.922;2023-02-28T09:26:06;9.50;48.60
44729;DHT22;30457;53.590;9.922;2023-02-28T09:30:32;9.60;47.50
44729;DHT22;30457;53.590;9.922;2023-02-28T09:34:57;9.80;47.40
44729;DHT22;30457;53.590;9.922;2023-02-28T09:39:23;9.90;47.60
44729;DHT22;30457;53.590;9.922;2023-02-28T09:43:55;10.10;47.20
44729;DHT22;30457;53.590;9.922;2023-02-28T09:48:25;10.20;46.20
44729;DHT22;30457;53.590;9.922;2023-02-28T09:52:54;10.30;45.40
44729;DHT22;30457;53.590;9.922;2023-02-28T09:57:35;10.40;45.20
44729;DHT22;30457;53.590;9.922;2023-02-28T10:02:12;10.50;44.90
44729;DHT22;30457;53.590;9.922;2023-02-28T10:06:49;10.60;44.50
44729;DHT22;30457;53.590;9.922;2023-02-28T10:11:16;10.60;44.20
44729;DHT22;30457;53.590;9.922;2023-02-28T10:15:45;10.70;44.60
44729;DHT22;30457;53.590;9.922;2023-02-28T10:20:15;10.70;43.30
44729;DHT22;30457;53.590;9.922;2023-02-28T10:24:50;10.80;44.40
44729;DHT22;30457;53.590;9.922;2023-02-28T10:29:16;10.80;44.90
44729;DHT22;30457;53.590;9.922;2023-02-28T10:33:42;10.90;44.90
44729;DHT22;30457;53.590;9.922;2023-02-28T10:38:16;11.00;44.40
44729;DHT22;30457;53.590;9.922;2023-02-28T10:42:42;11.00;43.80
44729;DHT22;30457;53.590;9.922;2023-02-28T10:47:14;11.10;44.30
44729;DHT22;30457;53.590;9.922;2023-02-28T10:51:41;11.10;43.00
44729;DHT22;30457;53.590;9.922;2023-02-28T11:00:36;11.10;43.40
44729;DHT22;30457;53.590;9.922;2023-02-28T11:05:01;11.00;43.20
44729;DHT22;30457;53.590;9.922;2023-02-28T11:09:39;11.10;43.70
44729;DHT22;30457;53.590;9.922;2023-02-28T11:14:06;11.00;43.30
44729;DHT22;30457;53.590;9.922;2023-02-28T11:23:05;11.20;43.20
44729;DHT22;30457;53.590;9.922;2023-02-28T11:27:49;11.20;43.30
44729;DHT22;30457;53.590;9.922;2023-02-28T11:32:22;11.30;42.70
44729;DHT22;30457;53.590;9.922;2023-02-28T11:36:54;11.40;42.50
44729;DHT22;30457;53.590;9.922;2023-02-28T11:41:57;11.40;42.90
44729;DHT22;30457;53.590;9.922;2023-02-28T11:46:52;11.50;42.00
44729;DHT22;30457;53.590;9.922;2023-02-28T11:51:35;11.70;41.90
44729;DHT22;30457;53.590;9.922;2023-02-28T11:56:33;11.80;42.90
44729;DHT22;30457;53.590;9.922;2023-02-28T12:06:20;12.10;40.90
44729;DHT22;30457;53.590;9.922;2023-02-28T12:15:39;12.20;40.70
44729;DHT22;30457;53.590;9.922;2023-02-28T12:29:32;12.50;40.20
44729;DHT22;30457;53.590;9.922;2023-02-28T12:34:04;12.60;40.20
44729;DHT22;30457;53.590;9.922;2023-02-28T12:38:38;12.70;39.60
44729;DHT22;30457;53.590;9.922;2023-02-28T12:43:07;12.70;39.60
44729;DHT22;30457;53.590;9.922;2023-02-28T12:47:34;12.90;40.40
44729;DHT22;30457;53.590;9.922;2023-02-28T12:52:01;13.00;40.50
44729;DHT22;30457;53.590;9.922;2023-02-28T13:06:17;13.40;39.50
44729;DHT22;30457;53.590;9.922;2023-02-28T13:10:50;13.50;38.50
44729;DHT22;30457;53.590;9.922;2023-02-28T13:15:22;13.60;39.20
44729;DHT22;30457;53.590;9.922;2023-02-28T13:24:42;13.90;39.30
44729;DHT22;30457;53.590;9.922;2023-02-28T13:38:25;14.20;37.30
44729;DHT22;30457;53.590;9.922;2023-02-28T13:42:57;14.40;37.40
44729;DHT22;30457;53.590;9.922;2023-02-28T13:47:24;14.50;37.60
44729;DHT22;30457;53.590;9.922;2023-02-28T13:56:30;14.70;36.90
44729;DHT22;30457;53.590;9.922;2023-02-28T14:01:23;14.70;36.20
44729;DHT22;30457;53.590;9.922;2023-02-28T14:06:10;14.80;35.70
44729;DHT22;30457;53.590;9.922;2023-02-28T14:10:49;14.80;36.70
44729;DHT22;30457;53.590;9.922;2023-02-28T14:20:02;14.80;35.40
44729;DHT22;30457;53.590;9.922;2023-02-28T14:24:34;14.70;36.20
44729;DHT22;30457;53.590;9.922;2023-02-28T14:38:54;14.50;35.00
44729;DHT22;30457;53.590;9.922;2023-02-28T14:43:24;14.40;34.70
44729;DHT22;30457;53.590;9.922;2023-02-28T14:47:51;14.20;35.00
44729;DHT22;30457;53.590;9.922;2023-02-28T14:52:20;14.00;35.30
44729;DHT22;30457;53.590;9.922;2023-02-28T14:56:49;13.90;35.40
44729;DHT22;30457;53.590;9.922;2023-02-28T15:01:20;13.80;35.80
44729;DHT22;30457;53.590;9.922;2023-02-28T15:05:56;13.70;35.50
44729;DHT22;30457;53.590;9.922;2023-02-28T15:10:26;13.60;35.10
44729;DHT22;30457;53.590;9.922;2023-02-28T15:14:53;13.50;35.70
44729;DHT22;30457;53.590;9.922;2023-02-28T15:19:23;13.40;36.20
44729;DHT22;30457;53.590;9.922;2023-02-28T15:24:03;13.30;35.50
44729;DHT22;30457;53.590;9.922;2023-02-28T15:28:30;13.20;35.10
44729;DHT22;30457;53.590;9.922;2023-02-28T15:33:23;13.10;36.30
44729;DHT22;30457;53.590;9.922;2023-02-28T15:42:40;13.00;36.40
44729;DHT22;30457;53.590;9.922;2023-02-28T15:47:18;12.90;36.60
44729;DHT22;30457;53.590;9.922;2023-02-28T15:51:44;12.90;36.70
44729;DHT22;30457;53.590;9.922;2023-02-28T15:56:24;12.80;37.60
44729;DHT22;30457;53.590;9.922;2023-02-28T16:01:04;12.70;36.60
44729;DHT22;30457;53.590;9.922;2023-02-28T16:05:31;12.70;37.20
44729;DHT22;30457;53.590;9.922;2023-02-28T16:09:57;12.60;37.40
44729;DHT22;30457;53.590;9.922;2023-02-28T16:14:24;12.50;37.90
44729;DHT22;30457;53.590;9.922;2023-02-28T16:18:53;12.40;37.60
44729;DHT22;30457;53.590;9.922;2023-02-28T16:23:18;12.40;37.90
44729;DHT22;30457;53.590;9.922;2023-02-28T16:27:47;12.30;37.80
44729;DHT22;30457;53.590;9.922;2023-02-28T16:32:15;12.20;37.50
44729;DHT22;30457;53.590;9.922;2023-02-28T16:36:41;12.10;37.70
44729;DHT22;30457;53.590;9.922;2023-02-28T16:41:06;12.00;38.20
44729;DHT22;30457;53.590;9.922;2023-02-28T16:45:35;12.00;38.50
44729;DHT22;30457;53.590;9.922;2023-02-28T16:50:01;11.90;38.50
44729;DHT22;30457;53.590;9.922;2023-02-28T16:54:26;11.80;38.60
44729;DHT22;30457;53.590;9.922;2023-02-28T16:58:57;11.60;38.50
44729;DHT22;30457;53.590;9.922;2023-02-28T17:03:25;11.50;38.50
44729;DHT22;30457;53.590;9.922;2023-02-28T17:07:51;11.40;38.60
44729;DHT22;30457;53.590;9.922;2023-02-28T17:12:17;11.30;38.50
44729;DHT22;30457;53.590;9.922;2023-02-28T17:16:43;11.20;39.20
44729;DHT22;30457;53.590;9.922;2023-02-28T17:21:16;11.00;39.10
44729;DHT22;30457;53.590;9.922;2023-02-28T17:25:41;10.90;38.50
44729;DHT22;30457;53.590;9.922;2023-02-28T17:30:21;10.80;39.30
44729;DHT22;30457;53.590;9.922;2023-02-28T17:34:47;10.60;39.70
44729;DHT22;30457;53.590;9.922;2023-02-28T17:39:14;10.50;39.30
44729;DHT22;30457;53.590;9.922;2023-02-28T17:43:40;10.40;40.20
44729;DHT22;30457;53.590;9.922;2023-02-28T17:48:06;10.20;40.60
44729;DHT22;30457;53.590;9.922;2023-02-28T17:52:31;10.10;40.50
44729;DHT22;30457;53.590;9.922;2023-02-28T17:57:01;10.00;40.80
44729;DHT22;30457;53.590;9.922;2023-02-28T18:01:27;9.90;40.70
44729;DHT22;30457;53.590;9.922;2023-02-28T18:05:53;9.80;41.00
44729;DHT22;30457;53.590;9.922;2023-02-28T18:10:21;9.70;41.20
44729;DHT22;30457;53.590;9.922;2023-02-28T18:14:47;9.50;41.20
44729;DHT22;30457;53.590;9.922;2023-02-28T18:19:13;9.40;41.60
44729;DHT22;30457;53.590;9.922;2023-02-28T18:23:42;9.30;42.60
44729;DHT22;30457;53.590;9.922;2023-02-28T18:28:14;9.20;42.00
44729;DHT22;30457;53.590;9.922;2023-02-28T18:32:40;9.10;42.00
44729;DHT22;30457;53.590;9.922;2023-02-28T18:37:06;9.00;42.00
44729;DHT22;30457;53.590;9.922;2023-02-28T18:41:31;8.90;42.50
44729;DHT22;30457;53.590;9.922;2023-02-28T18:45:57;8.80;42.50
44729;DHT22;30457;53.590;9.922;2023-02-28T18:50:22;8.70;42.50
44729;DHT22;30457;53.590;9.922;2023-02-28T18:54:48;8.60;43.20
44729;DHT22;30457;53.590;9.922;2023-02-28T18:59:14;8.50;42.70
44729;DHT22;30457;53.590;9.922;2023-02-28T19:03:39;8.40;43.00
44729;DHT22;30457;53.590;9.922;2023-02-28T19:08:05;8.30;43.30
44729;DHT22;30457;53.590;9.922;2023-02-28T19:12:37;8.30;43.30
44729;DHT22;30457;53.590;9.922;2023-02-28T19:17:03;8.20;43.50
44729;DHT22;30457;53.590;9.922;2023-02-28T19:21:29;8.10;43.60
44729;DHT22;30457;53.590;9.922;2023-02-28T19:25:55;8.00;43.90
44729;DHT22;30457;53.590;9.922;2023-02-28T19:30:21;7.90;44.00
44729;DHT22;30457;53.590;9.922;2023-02-28T19:34:47;7.90;44.30
44729;DHT22;30457;53.590;9.922;2023-02-28T19:39:13;7.80;44.40
44729;DHT22;30457;53.590;9.922;2023-02-28T19:43:38;7.70;44.40
44729;DHT22;30457;53.590;9.922;2023-02-28T19:48:04;7.70;44.40
44729;DHT22;30457;53.590;9.922;2023-02-28T19:52:30;7.60;44.60
44729;DHT22;30457;53.590;9.922;2023-02-28T19:56:55;7.50;44.70
44729;DHT22;30457;53.590;9.922;2023-02-28T20:01:22;7.50;44.80
44729;DHT22;30457;53.590;9.922;2023-02-28T20:05:58;7.40;44.90
44729;DHT22;30457;53.590;9.922;2023-02-28T20:10:24;7.30;45.30
44729;DHT22;30457;53.590;9.922;2023-02-28T20:14:50;7.30;45.30
44729;DHT22;30457;53.590;9.922;2023-02-28T20:19:16;7.20;45.30
44729;DHT22;30457;53.590;9.922;2023-02-28T20:23:43;7.10;45.40
44729;DHT22;30457;53.590;9.922;2023-02-28T20:28:09;7.10;45.60
44729;DHT22;30457;53.590;9.922;2023-02-28T20:32:35;7.00;45.70
44729;DHT22;30457;53.590;9.922;2023-02-28T20:37:03;6.90;45.80
44729;DHT22;30457;53.590;9.922;2023-02-28T20:41:29;6.90;45.80
44729;DHT22;30457;53.590;9.922;2023-02-28T20:45:56;6.80;46.00
44729;DHT22;30457;53.590;9.922;2023-02-28T20:50:22;6.70;46.10
44729;DHT22;30457;53.590;9.922;2023-02-28T20:54:48;6.70;46.30
44729;DHT22;30457;53.590;9.922;2023-02-28T20:59:14;6.60;46.40
44729;DHT22;30457;53.590;9.922;2023-02-28T21:03:40;6.60;46.40
44729;DHT22;30457;53.590;9.922;2023-02-28T21:08:05;6.60;46.50
44729;DHT22;30457;53.590;9.922;2023-02-28T21:12:31;6.50;46.60
44729;DHT22;30457;53.590;9.922;2023-02-28T21:16:56;6.40;46.50
44729;DHT22;30457;53.590;9.922;2023-02-28T21:21:23;6.40;46.60
44729;DHT22;30457;53.590;9.922;2023-02-28T21:25:49;6.30;46.60
44729;DHT22;30457;53.590;9.922;2023-02-28T21:30:14;6.30;46.70
44729;DHT22;30457;53.590;9.922;2023-02-28T21:34:40;6.20;46.80
44729;DHT22;30457;53.590;9.922;2023-02-28T21:39:17;6.20;46.90
44729;DHT22;30457;53.590;9.922;2023-02-28T21:43:43;6.10;47.00
44729;DHT22;30457;53.590;9.922;2023-02-28T21:48:09;6.10;47.10
44729;DHT22;30457;53.590;9.922;2023-02-28T21:52:35;6.00;47.10
44729;DHT22;30457;53.590;9.922;2023-02-28T21:57:00;5.90;47.20
44729;DHT22;30457;53.590;9.922;2023-02-28T22:01:29;5.90;47.30
44729;DHT22;30457;53.590;9.922;2023-02-28T22:05:55;5.90;47.40
44729;DHT22;30457;53.590;9.922;2023-02-28T22:10:21;5.80;47.40
44729;DHT22;30457;53.590;9.922;2023-02-28T22:14:46;5.70;47.50
44729;DHT22;30457;53.590;9.922;2023-02-28T22:19:12;5.70;47.50
44729;DHT22;30457;53.590;9.922;2023-02-28T22:23:38;5.70;47.60
44729;DHT22;30457;53.590;9.922;2023-02-28T22:28:04;5.60;47.70
44729;DHT22;30457;53.590;9.922;2023-02-28T22:32:30;5.60;47.70
44729;DHT22;30457;53.590;9.922;2023-02-28T22:36:55;5.50;47.70
44729;DHT22;30457;53.590;9.922;2023-02-28T22:41:22;5.50;47.80
44729;DHT22;30457;53.590;9.922;2023-02-28T22:45:48;5.40;47.80
44729;DHT22;30457;53.590;9.922;2023-02-28T22:50:14;5.40;47.90
44729;DHT22;30457;53.590;9.922;2023-02-28T22:54:39;5.40;48.00
44729;DHT22;30457;53.590;9.922;2023-02-28T22:59:05;5.30;48.10
44729;DHT22;30457;53.590;9.922;2023-02-28T23:03:30;5.30;48.10
44729;DHT22;30457;53.590;9.922;2023-02-28T23:07:56;5.30;48.10
44729;DHT22;30457;53.590;9.922;2023-02-28T23:12:22;5.20;48.10
44729;DHT22;30457;53.590;9.922;2023-02-28T23:16:52;5.20;48.30
44729;DHT22;30457;53.590;9.922;2023-02-28T23:21:18;5.20;48.40
44729;DHT22;30457;53.590;9.922;2023-02-28T23:25:44;5.20;48.50
44729;DHT22;30457;53.590;9.922;2023-02-28T23:30:10;5.20;48.50
44729;DHT22;30457;53.590;9.922;2023-02-28T23:34:35;5.10;48.50
44729;DHT22;30457;53.590;9.922;2023-02-28T23:39:02;5.10;48.50
44729;DHT22;30457;53.590;9.922;2023-02-28T23:43:27;5.10;48.50
44729;DHT22;30457;53.590;9.922;2023-02-28T23:47:53;5.00;48.60
44729;DHT22;30457;53.590;9.922;2023-02-28T23:52:19;5.00;48.70
44729;DHT22;30457;53.590;9.922;2023-02-28T23:56:44;4.90;48.60
